sensor_id;sensor_type;location;lat;lon;timestamp;P1;durP1;ratioP1;P2;durP2;ratioP2
76125;SDS011;65174;48.138;21.002;2023-10-13T00:02:45;17.58;;;7.72;;
76125;SDS011;65174;48.138;21.002;2023-10-13T00:05:49;13.85;;;8.55;;
76125;SDS011;65174;48.138;21.002;2023-10-13T00:08:54;16.38;;;7.90;;
76125;SDS011;65174;48.138;21.002;2023-10-13T00:11:56;16.58;;;8.40;;
76125;SDS011;65174;48.138;21.002;2023-10-13T00:14:58;16.07;;;8.40;;
76125;SDS011;65174;48.138;21.002;2023-10-13T00:18:05;16.88;;;8.85;;
76125;SDS011;65174;48.138;21.002;2023-10-13T00:21:14;17.00;;;8.60;;
76125;SDS011;65174;48.138;21.002;2023-10-13T00:24:21;15.35;;;8.80;;
76125;SDS011;65174;48.138;21.002;2023-10-13T00:27:25;13.48;;;9.35;;
76125;SDS011;65174;48.138;21.002;2023-10-13T00:30:29;15.80;;;7.47;;
76125;SDS011;65174;48.138;21.002;2023-10-13T00:33:38;12.48;;;8.32;;
76125;SDS011;65174;48.138;21.002;2023-10-13T00:36:43;13.95;;;8.63;;
76125;SDS011;65174;48.138;21.002;2023-10-13T00:40:08;13.40;;;7.75;;
76125;SDS011;65174;48.138;21.002;2023-10-13T00:43:49;16.48;;;7.93;;
76125;SDS011;65174;48.138;21.002;2023-10-13T00:47:06;14.73;;;8.50;;
76125;SDS011;65174;48.138;21.002;2023-10-13T00:50:10;14.45;;;8.05;;
76125;SDS011;65174;48.138;21.002;2023-10-13T00:53:16;17.98;;;8.55;;
76125;SDS011;65174;48.138;21.002;2023-10-13T00:56:19;15.13;;;8.82;;
76125;SDS011;65174;48.138;21.002;2023-10-13T00:59:29;18.98;;;9.52;;
76125;SDS011;65174;48.138;21.002;2023-10-13T01:02:35;16.07;;;8.83;;
76125;SDS011;65174;48.138;21.002;2023-10-13T01:05:37;17.95;;;8.88;;
76125;SDS011;65174;48.138;21.002;2023-10-13T01:08:40;16.02;;;8.77;;
76125;SDS011;65174;48.138;21.002;2023-10-13T01:11:46;16.50;;;8.88;;
76125;SDS011;65174;48.138;21.002;2023-10-13T01:14:54;15.23;;;8.57;;
76125;SDS011;65174;48.138;21.002;2023-10-13T01:18:08;16.93;;;10.30;;
76125;SDS011;65174;48.138;21.002;2023-10-13T01:21:18;21.73;;;10.20;;
76125;SDS011;65174;48.138;21.002;2023-10-13T01:24:29;17.05;;;10.50;;
76125;SDS011;65174;48.138;21.002;2023-10-13T01:27:37;20.27;;;11.25;;
76125;SDS011;65174;48.138;21.002;2023-10-13T01:30:40;19.02;;;12.52;;
76125;SDS011;65174;48.138;21.002;2023-10-13T01:33:42;21.17;;;10.73;;
76125;SDS011;65174;48.138;21.002;2023-10-13T01:36:44;19.83;;;10.45;;
76125;SDS011;65174;48.138;21.002;2023-10-13T01:39:46;17.90;;;10.20;;
76125;SDS011;65174;48.138;21.002;2023-10-13T01:42:49;16.58;;;10.27;;
76125;SDS011;65174;48.138;21.002;2023-10-13T01:45:57;19.23;;;9.77;;
76125;SDS011;65174;48.138;21.002;2023-10-13T01:48:59;38.07;;;11.03;;
76125;SDS011;65174;48.138;21.002;2023-10-13T01:52:01;15.90;;;9.32;;
76125;SDS011;65174;48.138;21.002;2023-10-13T01:55:05;16.38;;;9.90;;
76125;SDS011;65174;48.138;21.002;2023-10-13T01:58:09;17.38;;;9.80;;
76125;SDS011;65174;48.138;21.002;2023-10-13T02:01:32;19.30;;;10.40;;
76125;SDS011;65174;48.138;21.002;2023-10-13T02:04:36;17.43;;;9.63;;
76125;SDS011;65174;48.138;21.002;2023-10-13T02:07:38;17.25;;;9.73;;
76125;SDS011;65174;48.138;21.002;2023-10-13T02:10:40;15.07;;;10.18;;
76125;SDS011;65174;48.138;21.002;2023-10-13T02:13:44;16.45;;;11.10;;
76125;SDS011;65174;48.138;21.002;2023-10-13T02:16:50;16.77;;;10.15;;
76125;SDS011;65174;48.138;21.002;2023-10-13T02:19:52;14.90;;;9.80;;
76125;SDS011;65174;48.138;21.002;2023-10-13T02:22:56;15.75;;;9.60;;
76125;SDS011;65174;48.138;21.002;2023-10-13T02:26:01;16.75;;;11.05;;
76125;SDS011;65174;48.138;21.002;2023-10-13T02:29:05;17.83;;;10.45;;
76125;SDS011;65174;48.138;21.002;2023-10-13T02:32:14;17.25;;;10.32;;
76125;SDS011;65174;48.138;21.002;2023-10-13T02:35:20;14.77;;;11.20;;
76125;SDS011;65174;48.138;21.002;2023-10-13T02:38:31;17.30;;;9.95;;
76125;SDS011;65174;48.138;21.002;2023-10-13T02:41:47;14.35;;;10.05;;
76125;SDS011;65174;48.138;21.002;2023-10-13T02:44:50;16.92;;;10.00;;
76125;SDS011;65174;48.138;21.002;2023-10-13T02:47:52;16.05;;;9.20;;
76125;SDS011;65174;48.138;21.002;2023-10-13T02:51:12;15.73;;;9.20;;
76125;SDS011;65174;48.138;21.002;2023-10-13T02:54:18;15.68;;;9.48;;
76125;SDS011;65174;48.138;21.002;2023-10-13T02:57:20;18.73;;;9.88;;
76125;SDS011;65174;48.138;21.002;2023-10-13T03:00:24;17.13;;;9.45;;
76125;SDS011;65174;48.138;21.002;2023-10-13T03:03:34;17.25;;;9.63;;
76125;SDS011;65174;48.138;21.002;2023-10-13T03:06:36;20.07;;;10.30;;
76125;SDS011;65174;48.138;21.002;2023-10-13T03:09:42;18.60;;;10.05;;
76125;SDS011;65174;48.138;21.002;2023-10-13T03:12:52;14.30;;;9.50;;
76125;SDS011;65174;48.138;21.002;2023-10-13T03:15:55;15.85;;;11.43;;
76125;SDS011;65174;48.138;21.002;2023-10-13T03:18:57;17.85;;;9.57;;
76125;SDS011;65174;48.138;21.002;2023-10-13T03:21:59;20.67;;;9.13;;
76125;SDS011;65174;48.138;21.002;2023-10-13T03:25:11;17.50;;;9.38;;
76125;SDS011;65174;48.138;21.002;2023-10-13T03:28:39;15.98;;;9.32;;
76125;SDS011;65174;48.138;21.002;2023-10-13T03:31:41;13.32;;;9.32;;
76125;SDS011;65174;48.138;21.002;2023-10-13T03:34:47;13.80;;;9.38;;
76125;SDS011;65174;48.138;21.002;2023-10-13T03:37:55;21.13;;;9.13;;
76125;SDS011;65174;48.138;21.002;2023-10-13T03:40:57;20.27;;;9.77;;
76125;SDS011;65174;48.138;21.002;2023-10-13T03:44:09;16.77;;;9.27;;
76125;SDS011;65174;48.138;21.002;2023-10-13T03:47:19;15.45;;;8.90;;
76125;SDS011;65174;48.138;21.002;2023-10-13T03:50:28;15.88;;;9.80;;
76125;SDS011;65174;48.138;21.002;2023-10-13T03:53:34;15.10;;;10.43;;
76125;SDS011;65174;48.138;21.002;2023-10-13T03:56:56;20.30;;;10.27;;
76125;SDS011;65174;48.138;21.002;2023-10-13T03:59:58;19.30;;;10.55;;
76125;SDS011;65174;48.138;21.002;2023-10-13T04:03:02;17.02;;;10.32;;
76125;SDS011;65174;48.138;21.002;2023-10-13T04:06:04;18.70;;;10.60;;
76125;SDS011;65174;48.138;21.002;2023-10-13T04:09:18;16.50;;;11.03;;
76125;SDS011;65174;48.138;21.002;2023-10-13T04:12:32;16.60;;;11.23;;
76125;SDS011;65174;48.138;21.002;2023-10-13T04:16:01;15.10;;;10.32;;
76125;SDS011;65174;48.138;21.002;2023-10-13T04:19:21;18.80;;;10.82;;
76125;SDS011;65174;48.138;21.002;2023-10-13T04:22:28;14.55;;;11.32;;
76125;SDS011;65174;48.138;21.002;2023-10-13T04:25:49;15.57;;;10.10;;
76125;SDS011;65174;48.138;21.002;2023-10-13T04:28:51;17.38;;;11.07;;
76125;SDS011;65174;48.138;21.002;2023-10-13T04:31:57;17.02;;;10.68;;
76125;SDS011;65174;48.138;21.002;2023-10-13T04:35:02;18.40;;;10.63;;
76125;SDS011;65174;48.138;21.002;2023-10-13T04:38:16;18.35;;;10.75;;
76125;SDS011;65174;48.138;21.002;2023-10-13T04:41:28;16.17;;;11.40;;
76125;SDS011;65174;48.138;21.002;2023-10-13T04:44:47;18.35;;;10.95;;
76125;SDS011;65174;48.138;21.002;2023-10-13T04:47:54;19.00;;;10.48;;
76125;SDS011;65174;48.138;21.002;2023-10-13T04:51:15;16.95;;;10.82;;
76125;SDS011;65174;48.138;21.002;2023-10-13T04:54:42;17.42;;;10.70;;
76125;SDS011;65174;48.138;21.002;2023-10-13T04:57:55;18.33;;;10.27;;
76125;SDS011;65174;48.138;21.002;2023-10-13T05:01:17;16.67;;;10.48;;
76125;SDS011;65174;48.138;21.002;2023-10-13T05:04:25;18.15;;;11.73;;
76125;SDS011;65174;48.138;21.002;2023-10-13T05:07:50;19.35;;;11.18;;
76125;SDS011;65174;48.138;21.002;2023-10-13T05:11:11;20.95;;;11.68;;
76125;SDS011;65174;48.138;21.002;2023-10-13T05:14:31;18.97;;;11.77;;
76125;SDS011;65174;48.138;21.002;2023-10-13T05:17:52;18.40;;;12.75;;
76125;SDS011;65174;48.138;21.002;2023-10-13T05:21:12;19.75;;;12.05;;
76125;SDS011;65174;48.138;21.002;2023-10-13T05:24:32;15.75;;;11.02;;
76125;SDS011;65174;48.138;21.002;2023-10-13T05:27:53;15.70;;;10.73;;
76125;SDS011;65174;48.138;21.002;2023-10-13T05:31:33;14.83;;;9.93;;
76125;SDS011;65174;48.138;21.002;2023-10-13T05:34:54;15.63;;;11.13;;
76125;SDS011;65174;48.138;21.002;2023-10-13T05:38:14;15.07;;;11.23;;
76125;SDS011;65174;48.138;21.002;2023-10-13T05:41:34;16.65;;;10.48;;
76125;SDS011;65174;48.138;21.002;2023-10-13T05:44:55;17.95;;;10.68;;
76125;SDS011;65174;48.138;21.002;2023-10-13T05:48:20;17.33;;;11.00;;
76125;SDS011;65174;48.138;21.002;2023-10-13T05:51:36;19.42;;;11.40;;
76125;SDS011;65174;48.138;21.002;2023-10-13T05:54:38;22.70;;;10.90;;
76125;SDS011;65174;48.138;21.002;2023-10-13T05:57:58;23.58;;;10.98;;
76125;SDS011;65174;48.138;21.002;2023-10-13T06:01:21;15.55;;;10.30;;
76125;SDS011;65174;48.138;21.002;2023-10-13T06:04:42;13.97;;;9.20;;
76125;SDS011;65174;48.138;21.002;2023-10-13T06:08:02;16.60;;;9.57;;
76125;SDS011;65174;48.138;21.002;2023-10-13T06:11:24;14.13;;;10.02;;
76125;SDS011;65174;48.138;21.002;2023-10-13T06:14:47;18.65;;;10.48;;
76125;SDS011;65174;48.138;21.002;2023-10-13T06:18:08;16.48;;;9.95;;
76125;SDS011;65174;48.138;21.002;2023-10-13T06:21:28;20.10;;;10.67;;
76125;SDS011;65174;48.138;21.002;2023-10-13T06:24:48;15.52;;;10.27;;
76125;SDS011;65174;48.138;21.002;2023-10-13T06:28:25;16.52;;;10.57;;
76125;SDS011;65174;48.138;21.002;2023-10-13T06:31:43;17.45;;;11.30;;
76125;SDS011;65174;48.138;21.002;2023-10-13T06:34:47;21.52;;;12.13;;
76125;SDS011;65174;48.138;21.002;2023-10-13T06:37:50;28.40;;;14.90;;
76125;SDS011;65174;48.138;21.002;2023-10-13T06:40:53;23.73;;;12.57;;
76125;SDS011;65174;48.138;21.002;2023-10-13T06:43:55;18.40;;;11.90;;
76125;SDS011;65174;48.138;21.002;2023-10-13T06:47:07;20.08;;;10.20;;
76125;SDS011;65174;48.138;21.002;2023-10-13T06:50:16;17.85;;;9.45;;
76125;SDS011;65174;48.138;21.002;2023-10-13T06:53:29;19.73;;;10.30;;
76125;SDS011;65174;48.138;21.002;2023-10-13T06:56:31;16.25;;;9.77;;
76125;SDS011;65174;48.138;21.002;2023-10-13T06:59:34;14.32;;;8.38;;
76125;SDS011;65174;48.138;21.002;2023-10-13T07:02:40;11.23;;;8.05;;
76125;SDS011;65174;48.138;21.002;2023-10-13T07:05:45;15.88;;;8.73;;
76125;SDS011;65174;48.138;21.002;2023-10-13T07:08:50;11.87;;;7.87;;
76125;SDS011;65174;48.138;21.002;2023-10-13T07:11:58;17.58;;;7.72;;
76125;SDS011;65174;48.138;21.002;2023-10-13T07:15:02;15.50;;;8.32;;
76125;SDS011;65174;48.138;21.002;2023-10-13T07:18:13;13.60;;;8.45;;
76125;SDS011;65174;48.138;21.002;2023-10-13T07:21:18;16.40;;;8.13;;
76125;SDS011;65174;48.138;21.002;2023-10-13T07:24:33;12.47;;;8.67;;
76125;SDS011;65174;48.138;21.002;2023-10-13T07:27:41;28.33;;;14.68;;
76125;SDS011;65174;48.138;21.002;2023-10-13T07:30:43;27.10;;;16.10;;
76125;SDS011;65174;48.138;21.002;2023-10-13T07:34:11;21.35;;;11.32;;
76125;SDS011;65174;48.138;21.002;2023-10-13T07:37:33;16.33;;;8.85;;
76125;SDS011;65174;48.138;21.002;2023-10-13T07:40:35;18.10;;;12.17;;
76125;SDS011;65174;48.138;21.002;2023-10-13T07:43:37;17.65;;;9.73;;
76125;SDS011;65174;48.138;21.002;2023-10-13T07:46:39;21.58;;;14.05;;
76125;SDS011;65174;48.138;21.002;2023-10-13T07:49:41;17.42;;;10.80;;
76125;SDS011;65174;48.138;21.002;2023-10-13T07:52:43;39.10;;;14.52;;
76125;SDS011;65174;48.138;21.002;2023-10-13T07:56:02;27.00;;;16.90;;
76125;SDS011;65174;48.138;21.002;2023-10-13T07:59:07;14.80;;;8.27;;
76125;SDS011;65174;48.138;21.002;2023-10-13T08:02:11;16.67;;;8.25;;
76125;SDS011;65174;48.138;21.002;2023-10-13T08:05:14;20.27;;;9.15;;
76125;SDS011;65174;48.138;21.002;2023-10-13T08:08:26;26.63;;;10.35;;
76125;SDS011;65174;48.138;21.002;2023-10-13T08:11:36;26.57;;;13.50;;
76125;SDS011;65174;48.138;21.002;2023-10-13T08:14:41;14.30;;;9.15;;
76125;SDS011;65174;48.138;21.002;2023-10-13T08:17:45;23.67;;;13.10;;
76125;SDS011;65174;48.138;21.002;2023-10-13T08:20:48;13.05;;;8.63;;
76125;SDS011;65174;48.138;21.002;2023-10-13T08:23:53;16.15;;;9.65;;
76125;SDS011;65174;48.138;21.002;2023-10-13T08:26:55;17.30;;;10.90;;
76125;SDS011;65174;48.138;21.002;2023-10-13T08:30:20;33.42;;;15.70;;
76125;SDS011;65174;48.138;21.002;2023-10-13T08:33:29;18.90;;;9.55;;
76125;SDS011;65174;48.138;21.002;2023-10-13T08:36:34;17.92;;;9.65;;
76125;SDS011;65174;48.138;21.002;2023-10-13T08:39:40;16.88;;;8.30;;
76125;SDS011;65174;48.138;21.002;2023-10-13T08:43:17;16.97;;;8.03;;
76125;SDS011;65174;48.138;21.002;2023-10-13T08:46:19;15.52;;;8.55;;
76125;SDS011;65174;48.138;21.002;2023-10-13T08:49:33;16.45;;;8.15;;
76125;SDS011;65174;48.138;21.002;2023-10-13T08:52:41;13.13;;;7.70;;
76125;SDS011;65174;48.138;21.002;2023-10-13T08:55:51;12.63;;;7.47;;
76125;SDS011;65174;48.138;21.002;2023-10-13T08:59:04;14.40;;;7.30;;
76125;SDS011;65174;48.138;21.002;2023-10-13T09:02:12;12.55;;;7.93;;
76125;SDS011;65174;48.138;21.002;2023-10-13T09:05:20;13.60;;;7.88;;
76125;SDS011;65174;48.138;21.002;2023-10-13T09:08:43;13.15;;;7.15;;
76125;SDS011;65174;48.138;21.002;2023-10-13T09:15:35;55.57;;;19.93;;
76125;SDS011;65174;48.138;21.002;2023-10-13T09:19:06;25.77;;;10.90;;
76125;SDS011;65174;48.138;21.002;2023-10-13T09:22:08;102.95;;;35.72;;
76125;SDS011;65174;48.138;21.002;2023-10-13T09:25:27;32.70;;;15.35;;
76125;SDS011;65174;48.138;21.002;2023-10-13T09:28:39;43.95;;;17.05;;
76125;SDS011;65174;48.138;21.002;2023-10-13T09:31:41;28.53;;;11.43;;
76125;SDS011;65174;48.138;21.002;2023-10-13T09:34:46;20.20;;;8.02;;
76125;SDS011;65174;48.138;21.002;2023-10-13T09:37:52;24.25;;;7.68;;
76125;SDS011;65174;48.138;21.002;2023-10-13T09:40:58;16.95;;;7.57;;
76125;SDS011;65174;48.138;21.002;2023-10-13T09:44:03;9.95;;;6.00;;
76125;SDS011;65174;48.138;21.002;2023-10-13T09:47:07;14.97;;;6.63;;
76125;SDS011;65174;48.138;21.002;2023-10-13T09:50:18;11.27;;;7.00;;
76125;SDS011;65174;48.138;21.002;2023-10-13T09:53:27;12.75;;;6.47;;
76125;SDS011;65174;48.138;21.002;2023-10-13T09:56:32;10.90;;;5.82;;
76125;SDS011;65174;48.138;21.002;2023-10-13T10:00:00;14.63;;;6.22;;
76125;SDS011;65174;48.138;21.002;2023-10-13T10:03:14;13.90;;;6.40;;
76125;SDS011;65174;48.138;21.002;2023-10-13T10:06:21;13.27;;;6.57;;
76125;SDS011;65174;48.138;21.002;2023-10-13T10:09:33;12.75;;;6.53;;
76125;SDS011;65174;48.138;21.002;2023-10-13T10:12:38;13.80;;;6.13;;
76125;SDS011;65174;48.138;21.002;2023-10-13T10:15:49;10.43;;;5.80;;
76125;SDS011;65174;48.138;21.002;2023-10-13T10:19:00;9.03;;;5.57;;
76125;SDS011;65174;48.138;21.002;2023-10-13T10:22:04;12.98;;;5.78;;
76125;SDS011;65174;48.138;21.002;2023-10-13T10:25:27;10.07;;;6.45;;
76125;SDS011;65174;48.138;21.002;2023-10-13T10:28:37;11.52;;;6.28;;
76125;SDS011;65174;48.138;21.002;2023-10-13T10:31:40;15.40;;;6.45;;
76125;SDS011;65174;48.138;21.002;2023-10-13T10:34:46;10.77;;;5.93;;
76125;SDS011;65174;48.138;21.002;2023-10-13T10:37:49;22.67;;;7.10;;
76125;SDS011;65174;48.138;21.002;2023-10-13T10:40:52;13.82;;;6.63;;
76125;SDS011;65174;48.138;21.002;2023-10-13T10:44:02;9.98;;;6.20;;
76125;SDS011;65174;48.138;21.002;2023-10-13T10:50:13;16.20;;;6.13;;
76125;SDS011;65174;48.138;21.002;2023-10-13T10:53:21;11.18;;;6.03;;
76125;SDS011;65174;48.138;21.002;2023-10-13T10:56:25;12.38;;;6.65;;
76125;SDS011;65174;48.138;21.002;2023-10-13T10:59:38;16.48;;;6.68;;
76125;SDS011;65174;48.138;21.002;2023-10-13T11:02:40;11.40;;;6.32;;
76125;SDS011;65174;48.138;21.002;2023-10-13T11:05:44;11.43;;;6.23;;
76125;SDS011;65174;48.138;21.002;2023-10-13T11:08:46;15.07;;;6.70;;
76125;SDS011;65174;48.138;21.002;2023-10-13T11:11:53;14.90;;;6.93;;
76125;SDS011;65174;48.138;21.002;2023-10-13T11:15:03;13.40;;;7.20;;
76125;SDS011;65174;48.138;21.002;2023-10-13T11:18:30;11.85;;;6.53;;
76125;SDS011;65174;48.138;21.002;2023-10-13T11:21:42;13.20;;;5.90;;
76125;SDS011;65174;48.138;21.002;2023-10-13T11:24:44;13.88;;;5.72;;
76125;SDS011;65174;48.138;21.002;2023-10-13T11:27:46;11.88;;;5.72;;
76125;SDS011;65174;48.138;21.002;2023-10-13T11:30:50;13.50;;;5.93;;
76125;SDS011;65174;48.138;21.002;2023-10-13T11:33:53;16.52;;;6.53;;
76125;SDS011;65174;48.138;21.002;2023-10-13T11:36:58;13.93;;;6.57;;
76125;SDS011;65174;48.138;21.002;2023-10-13T11:40:20;13.60;;;6.70;;
76125;SDS011;65174;48.138;21.002;2023-10-13T11:43:46;21.45;;;9.48;;
76125;SDS011;65174;48.138;21.002;2023-10-13T11:46:52;13.98;;;5.75;;
76125;SDS011;65174;48.138;21.002;2023-10-13T11:49:57;18.40;;;6.35;;
76125;SDS011;65174;48.138;21.002;2023-10-13T11:53:01;12.57;;;5.23;;
76125;SDS011;65174;48.138;21.002;2023-10-13T11:56:06;10.48;;;6.05;;
76125;SDS011;65174;48.138;21.002;2023-10-13T11:59:11;16.15;;;5.72;;
76125;SDS011;65174;48.138;21.002;2023-10-13T12:02:22;15.40;;;5.70;;
76125;SDS011;65174;48.138;21.002;2023-10-13T12:05:27;10.68;;;6.07;;
76125;SDS011;65174;48.138;21.002;2023-10-13T12:08:39;10.37;;;5.07;;
76125;SDS011;65174;48.138;21.002;2023-10-13T12:11:50;14.07;;;6.03;;
76125;SDS011;65174;48.138;21.002;2023-10-13T12:14:56;12.15;;;7.15;;
76125;SDS011;65174;48.138;21.002;2023-10-13T12:17:58;12.20;;;5.40;;
76125;SDS011;65174;48.138;21.002;2023-10-13T12:21:07;11.95;;;6.22;;
76125;SDS011;65174;48.138;21.002;2023-10-13T12:24:10;12.87;;;6.40;;
76125;SDS011;65174;48.138;21.002;2023-10-13T12:27:32;12.40;;;5.90;;
76125;SDS011;65174;48.138;21.002;2023-10-13T12:30:47;10.00;;;6.00;;
76125;SDS011;65174;48.138;21.002;2023-10-13T12:33:55;15.02;;;6.70;;
76125;SDS011;65174;48.138;21.002;2023-10-13T12:37:07;10.07;;;5.20;;
76125;SDS011;65174;48.138;21.002;2023-10-13T12:40:29;8.77;;;4.00;;
76125;SDS011;65174;48.138;21.002;2023-10-13T12:43:50;8.20;;;4.45;;
76125;SDS011;65174;48.138;21.002;2023-10-13T12:47:10;7.10;;;4.25;;
76125;SDS011;65174;48.138;21.002;2023-10-13T12:50:33;10.57;;;4.38;;
76125;SDS011;65174;48.138;21.002;2023-10-13T12:53:52;8.05;;;3.50;;
76125;SDS011;65174;48.138;21.002;2023-10-13T12:56:54;10.33;;;4.33;;
76125;SDS011;65174;48.138;21.002;2023-10-13T12:59:58;8.68;;;4.50;;
76125;SDS011;65174;48.138;21.002;2023-10-13T13:03:00;8.80;;;4.22;;
76125;SDS011;65174;48.138;21.002;2023-10-13T13:06:22;11.43;;;4.70;;
76125;SDS011;65174;48.138;21.002;2023-10-13T13:09:28;19.40;;;4.30;;
76125;SDS011;65174;48.138;21.002;2023-10-13T13:12:30;6.63;;;3.73;;
76125;SDS011;65174;48.138;21.002;2023-10-13T13:15:35;6.20;;;3.50;;
76125;SDS011;65174;48.138;21.002;2023-10-13T13:18:39;10.38;;;4.03;;
76125;SDS011;65174;48.138;21.002;2023-10-13T13:21:41;15.82;;;4.22;;
76125;SDS011;65174;48.138;21.002;2023-10-13T13:24:44;8.73;;;3.78;;
76125;SDS011;65174;48.138;21.002;2023-10-13T13:27:46;9.90;;;3.47;;
76125;SDS011;65174;48.138;21.002;2023-10-13T13:30:48;13.02;;;3.60;;
76125;SDS011;65174;48.138;21.002;2023-10-13T13:33:52;5.80;;;3.65;;
76125;SDS011;65174;48.138;21.002;2023-10-13T13:36:56;7.55;;;3.47;;
76125;SDS011;65174;48.138;21.002;2023-10-13T13:40:05;8.13;;;3.45;;
76125;SDS011;65174;48.138;21.002;2023-10-13T13:43:17;7.07;;;3.40;;
76125;SDS011;65174;48.138;21.002;2023-10-13T13:46:33;10.98;;;3.28;;
76125;SDS011;65174;48.138;21.002;2023-10-13T13:49:44;6.75;;;2.88;;
76125;SDS011;65174;48.138;21.002;2023-10-13T13:52:54;6.93;;;3.30;;
76125;SDS011;65174;48.138;21.002;2023-10-13T13:56:02;10.32;;;4.75;;
76125;SDS011;65174;48.138;21.002;2023-10-13T13:59:04;8.03;;;3.33;;
76125;SDS011;65174;48.138;21.002;2023-10-13T14:02:10;6.47;;;3.45;;
76125;SDS011;65174;48.138;21.002;2023-10-13T14:05:22;9.15;;;3.72;;
76125;SDS011;65174;48.138;21.002;2023-10-13T14:08:25;12.52;;;4.00;;
76125;SDS011;65174;48.138;21.002;2023-10-13T14:11:32;10.15;;;4.13;;
76125;SDS011;65174;48.138;21.002;2023-10-13T14:14:40;8.87;;;3.80;;
76125;SDS011;65174;48.138;21.002;2023-10-13T14:17:49;7.93;;;5.13;;
76125;SDS011;65174;48.138;21.002;2023-10-13T14:20:51;11.45;;;4.20;;
76125;SDS011;65174;48.138;21.002;2023-10-13T14:23:53;8.77;;;4.43;;
76125;SDS011;65174;48.138;21.002;2023-10-13T14:26:59;14.88;;;4.40;;
76125;SDS011;65174;48.138;21.002;2023-10-13T14:30:13;8.43;;;3.73;;
76125;SDS011;65174;48.138;21.002;2023-10-13T14:33:21;12.55;;;4.25;;
76125;SDS011;65174;48.138;21.002;2023-10-13T14:36:27;19.08;;;4.47;;
76125;SDS011;65174;48.138;21.002;2023-10-13T14:39:36;20.33;;;4.18;;
76125;SDS011;65174;48.138;21.002;2023-10-13T14:42:38;8.73;;;3.60;;
76125;SDS011;65174;48.138;21.002;2023-10-13T14:45:42;16.50;;;5.27;;
76125;SDS011;65174;48.138;21.002;2023-10-13T14:48:44;15.27;;;6.70;;
76125;SDS011;65174;48.138;21.002;2023-10-13T14:51:46;19.67;;;4.50;;
76125;SDS011;65174;48.138;21.002;2023-10-13T14:54:48;14.75;;;4.50;;
76125;SDS011;65174;48.138;21.002;2023-10-13T14:57:56;16.63;;;5.18;;
76125;SDS011;65174;48.138;21.002;2023-10-13T15:00:58;9.90;;;5.87;;
76125;SDS011;65174;48.138;21.002;2023-10-13T15:04:02;14.90;;;5.10;;
76125;SDS011;65174;48.138;21.002;2023-10-13T15:07:06;12.43;;;4.40;;
76125;SDS011;65174;48.138;21.002;2023-10-13T15:10:08;13.02;;;4.25;;
76125;SDS011;65174;48.138;21.002;2023-10-13T15:13:16;11.43;;;4.25;;
76125;SDS011;65174;48.138;21.002;2023-10-13T15:16:18;11.50;;;3.80;;
76125;SDS011;65174;48.138;21.002;2023-10-13T15:19:23;13.88;;;4.15;;
76125;SDS011;65174;48.138;21.002;2023-10-13T15:22:25;11.55;;;5.65;;
76125;SDS011;65174;48.138;21.002;2023-10-13T15:25:29;16.10;;;5.05;;
76125;SDS011;65174;48.138;21.002;2023-10-13T15:28:41;17.58;;;5.05;;
76125;SDS011;65174;48.138;21.002;2023-10-13T15:31:55;14.50;;;4.47;;
76125;SDS011;65174;48.138;21.002;2023-10-13T15:35:03;13.30;;;4.45;;
76125;SDS011;65174;48.138;21.002;2023-10-13T15:38:06;18.45;;;4.47;;
76125;SDS011;65174;48.138;21.002;2023-10-13T15:41:08;24.33;;;4.95;;
76125;SDS011;65174;48.138;21.002;2023-10-13T15:44:13;10.35;;;4.57;;
76125;SDS011;65174;48.138;21.002;2023-10-13T15:47:15;11.57;;;5.03;;
76125;SDS011;65174;48.138;21.002;2023-10-13T15:50:26;16.50;;;6.18;;
76125;SDS011;65174;48.138;21.002;2023-10-13T15:53:31;54.15;;;6.90;;
76125;SDS011;65174;48.138;21.002;2023-10-13T15:56:33;19.08;;;4.57;;
76125;SDS011;65174;48.138;21.002;2023-10-13T15:59:34;21.65;;;5.97;;
76125;SDS011;65174;48.138;21.002;2023-10-13T16:02:36;11.03;;;4.47;;
76125;SDS011;65174;48.138;21.002;2023-10-13T16:05:39;14.20;;;5.28;;
76125;SDS011;65174;48.138;21.002;2023-10-13T16:08:44;19.38;;;5.65;;
76125;SDS011;65174;48.138;21.002;2023-10-13T16:11:46;18.75;;;6.45;;
76125;SDS011;65174;48.138;21.002;2023-10-13T16:14:48;11.68;;;4.90;;
76125;SDS011;65174;48.138;21.002;2023-10-13T16:17:50;12.43;;;5.00;;
76125;SDS011;65174;48.138;21.002;2023-10-13T16:20:55;17.92;;;5.32;;
76125;SDS011;65174;48.138;21.002;2023-10-13T16:23:57;11.27;;;5.40;;
76125;SDS011;65174;48.138;21.002;2023-10-13T16:27:00;12.98;;;5.07;;
76125;SDS011;65174;48.138;21.002;2023-10-13T16:30:02;15.95;;;6.13;;
76125;SDS011;65174;48.138;21.002;2023-10-13T16:33:04;18.57;;;6.00;;
76125;SDS011;65174;48.138;21.002;2023-10-13T16:36:06;21.80;;;6.45;;
76125;SDS011;65174;48.138;21.002;2023-10-13T16:39:11;14.52;;;5.30;;
76125;SDS011;65174;48.138;21.002;2023-10-13T16:42:17;13.57;;;5.40;;
76125;SDS011;65174;48.138;21.002;2023-10-13T16:45:19;12.63;;;6.60;;
76125;SDS011;65174;48.138;21.002;2023-10-13T16:48:23;11.50;;;6.40;;
76125;SDS011;65174;48.138;21.002;2023-10-13T16:51:28;18.10;;;7.03;;
76125;SDS011;65174;48.138;21.002;2023-10-13T16:54:30;20.30;;;6.90;;
76125;SDS011;65174;48.138;21.002;2023-10-13T16:57:33;21.55;;;6.82;;
76125;SDS011;65174;48.138;21.002;2023-10-13T17:00:35;16.92;;;6.32;;
76125;SDS011;65174;48.138;21.002;2023-10-13T17:03:40;18.03;;;7.23;;
76125;SDS011;65174;48.138;21.002;2023-10-13T17:06:43;21.08;;;6.28;;
76125;SDS011;65174;48.138;21.002;2023-10-13T17:09:45;15.13;;;6.60;;
76125;SDS011;65174;48.138;21.002;2023-10-13T17:12:47;21.48;;;7.47;;
76125;SDS011;65174;48.138;21.002;2023-10-13T17:15:49;19.17;;;9.95;;
76125;SDS011;65174;48.138;21.002;2023-10-13T17:18:51;17.30;;;8.27;;
76125;SDS011;65174;48.138;21.002;2023-10-13T17:21:54;24.08;;;8.60;;
76125;SDS011;65174;48.138;21.002;2023-10-13T17:24:58;18.75;;;7.85;;
76125;SDS011;65174;48.138;21.002;2023-10-13T17:28:02;22.05;;;7.80;;
76125;SDS011;65174;48.138;21.002;2023-10-13T17:31:16;18.33;;;8.35;;
76125;SDS011;65174;48.138;21.002;2023-10-13T17:34:18;19.27;;;8.77;;
76125;SDS011;65174;48.138;21.002;2023-10-13T17:37:21;16.58;;;8.75;;
76125;SDS011;65174;48.138;21.002;2023-10-13T17:40:23;27.35;;;8.20;;
76125;SDS011;65174;48.138;21.002;2023-10-13T17:43:26;21.55;;;8.02;;
76125;SDS011;65174;48.138;21.002;2023-10-13T17:46:28;22.75;;;7.57;;
76125;SDS011;65174;48.138;21.002;2023-10-13T17:49:31;18.47;;;7.83;;
76125;SDS011;65174;48.138;21.002;2023-10-13T17:52:33;16.23;;;7.78;;
76125;SDS011;65174;48.138;21.002;2023-10-13T17:55:38;19.42;;;7.63;;
76125;SDS011;65174;48.138;21.002;2023-10-13T17:58:41;16.27;;;8.10;;
76125;SDS011;65174;48.138;21.002;2023-10-13T18:01:45;13.52;;;7.47;;
76125;SDS011;65174;48.138;21.002;2023-10-13T18:04:50;14.47;;;7.13;;
76125;SDS011;65174;48.138;21.002;2023-10-13T18:07:53;18.15;;;7.60;;
76125;SDS011;65174;48.138;21.002;2023-10-13T18:10:55;14.75;;;7.38;;
76125;SDS011;65174;48.138;21.002;2023-10-13T18:13:57;19.13;;;7.55;;
76125;SDS011;65174;48.138;21.002;2023-10-13T18:16:59;16.65;;;7.15;;
76125;SDS011;65174;48.138;21.002;2023-10-13T18:20:07;20.20;;;7.73;;
76125;SDS011;65174;48.138;21.002;2023-10-13T18:23:12;22.55;;;7.70;;
76125;SDS011;65174;48.138;21.002;2023-10-13T18:26:16;15.00;;;7.07;;